Time;durP1;ratioP1;P1;durP2;ratioP2;P2;SDS_P1;SDS_P2;PMS_P1;PMS_P2;Temp;Humidity;BMP_temperature;BMP_pressure;BME280_temperature;BME280_humidity;BME280_pressure;Samples;Min_cycle;Max_cycle;Signal;HPM_P1;HPM_P2
2023/07/06 00:01:02;;;;;;;6.35;2.40;;;;;;;18.05;79.24;92530.69;4942073;29;20063;-82
2023/07/06 00:03:28;;;;;;;;;;;;;;;17.97;79.84;92525.50;4940324;29;20071;-82
2023/07/06 00:05:54;;;;;;;5.40;2.70;;;;;;;17.89;79.76;92522.63;4945717;29;19914;-82
2023/07/06 00:08:20;;;;;;;5.28;2.50;;;;;;;17.85;79.81;92521.72;4958805;29;20039;-81
2023/07/06 00:10:50;;;;;;;5.63;2.60;;;;;;;17.79;80.33;92524.91;4950895;29;20498;-82
2023/07/06 00:13:17;;;;;;;6.15;2.45;;;;;;;17.76;80.51;92522.91;4960560;28;20407;-82
2023/07/06 00:15:43;;;;;;;6.53;3.03;;;;;;;17.71;80.27;92515.19;4959678;28;20035;-81
2023/07/06 00:18:10;;;;;;;7.10;2.83;;;;;;;17.63;81.41;92504.38;4960616;28;20039;-81
2023/07/06 00:20:37;;;;;;;5.03;2.60;;;;;;;17.66;80.46;92522.25;4960639;28;20537;-82
2023/07/06 00:23:08;;;;;;;6.28;2.78;;;;;;;17.65;80.80;92527.84;4953564;28;20405;-82
2023/07/06 00:25:34;;;;;;;5.88;2.60;;;;;;;17.63;81.86;92530.84;4940359;29;20046;-81
2023/07/06 00:28:02;;;;;;;6.47;3.10;;;;;;;17.57;82.85;92526.09;4945550;29;20397;-82
2023/07/06 00:33:11;;;;;;;6.35;2.63;;;;;;;17.62;80.13;92525.88;4955858;28;20076;-82
2023/07/06 00:35:39;;;;;;;7.03;3.40;;;;;;;17.74;75.86;92525.13;4941093;29;20040;-82
2023/07/06 00:38:09;;;;;;;6.93;3.25;;;;;;;17.77;76.61;92532.41;4950285;29;20500;-82
2023/07/06 00:40:37;;;;;;;8.88;3.20;;;;;;;17.77;76.73;92529.78;4959724;28;20101;-82
2023/07/06 00:43:03;;;;;;;7.95;3.50;;;;;;;17.74;77.29;92531.16;4954854;28;20060;-82
2023/07/06 00:45:29;;;;;;;7.20;3.50;;;;;;;17.76;88.81;92528.22;4954243;28;20446;-82
2023/07/06 00:47:57;;;;;;;6.53;3.67;;;;;;;17.64;96.65;92521.03;4947561;29;20039;-81
2023/07/06 00:50:27;;;;;;;6.72;3.17;;;;;;;17.53;95.63;92514.59;4959633;29;20047;-81
2023/07/06 00:52:59;;;;;;;7.07;3.50;;;;;;;17.42;95.07;92520.31;4959357;28;20035;-82
2023/07/06 00:55:31;;;;;;;7.70;3.70;;;;;;;17.33;88.64;92524.91;4957118;28;20268;-82
2023/07/06 00:58:02;;;;;;;;;;;;;;;17.38;98.18;92526.59;4939742;29;20042;-81
2023/07/06 01:00:28;;;;;;;6.72;3.42;;;;;;;17.25;99.00;92515.22;4940889;29;19921;-82
2023/07/06 01:03:00;;;;;;;10.02;3.33;;;;;;;17.18;100.00;92520.22;4955309;29;20193;-81
2023/07/06 01:05:26;;;;;;;;;;;;;;;17.06;100.00;92518.31;4943243;29;20035;-81
2023/07/06 01:07:54;;;;;;;9.30;4.45;;;;;;;16.98;100.00;92511.25;4971158;28;20324;-80
2023/07/06 01:10:20;;;;;;;6.03;3.05;;;;;;;16.94;100.00;92507.72;4953948;29;20070;-82
2023/07/06 01:12:46;;;;;;;6.68;3.55;;;;;;;16.87;100.00;92507.47;4958161;29;20039;-81
2023/07/06 01:15:16;;;;;;;8.48;3.45;;;;;;;16.79;100.00;92501.91;4959097;28;20070;-80
2023/07/06 01:17:57;;;;;;;6.50;3.35;;;;;;;16.70;100.00;92506.47;4959025;28;20047;-80
2023/07/06 01:20:31;;;;;;;8.80;4.07;;;;;;;16.64;100.00;92503.25;4967084;28;20027;-80
2023/07/06 01:23:28;;;;;;;8.23;3.50;;;;;;;16.67;100.00;92501.84;4963096;28;20035;-81
2023/07/06 01:26:15;;;;;;;10.60;4.10;;;;;;;16.65;100.00;92501.38;4958398;28;20383;-80
2023/07/06 01:28:45;;;;;;;8.68;3.47;;;;;;;16.65;99.58;92493.47;4957811;29;20058;-81
2023/07/06 01:31:20;;;;;;;8.73;3.92;;;;;;;16.67;93.00;92501.84;4957851;28;20042;-81
2023/07/06 01:34:04;;;;;;;7.70;3.65;;;;;;;16.69;91.45;92499.66;4939713;29;20556;-81
2023/07/06 01:36:58;;;;;;;14.60;4.30;;;;;;;16.72;87.85;92491.06;4938250;29;20036;-81
2023/07/06 01:39:28;;;;;;;7.53;4.03;;;;;;;16.74;89.25;92485.47;4959807;28;20035;-81
2023/07/06 01:42:27;;;;;;;9.55;4.50;;;;;;;16.73;93.29;92476.75;4940176;29;20050;-81
2023/07/06 01:44:56;;;;;;;9.15;4.63;;;;;;;16.70;91.80;92479.28;4952268;28;20079;-81
2023/07/06 01:47:24;;;;;;;9.98;5.18;;;;;;;16.65;90.50;92482.88;4958647;28;20094;-81
2023/07/06 01:49:51;;;;;;;9.90;4.75;;;;;;;16.68;88.52;92482.22;4956582;28;20397;-81
2023/07/06 01:52:39;;;;;;;9.77;4.70;;;;;;;16.65;93.12;92488.94;4955443;29;20539;-81
2023/07/06 01:55:10;;;;;;;14.27;4.88;;;;;;;16.70;86.75;92487.97;4952382;28;20070;-81
2023/07/06 01:58:04;;;;;;;9.18;4.95;;;;;;;16.72;84.52;92483.13;4956759;29;20038;-81
2023/07/06 02:00:31;;;;;;;11.27;4.90;;;;;;;16.79;83.57;92493.19;4956982;28;20031;-81
2023/07/06 02:02:59;;;;;;;12.60;5.43;;;;;;;16.79;82.03;92503.75;4954186;28;20414;-81
2023/07/06 02:05:26;;;;;;;12.07;5.50;;;;;;;16.81;81.06;92496.31;4954074;28;20542;-81
2023/07/06 02:07:52;;;;;;;11.88;5.53;;;;;;;16.83;80.62;92504.69;4946045;28;20054;-81
2023/07/06 02:10:19;;;;;;;12.35;5.78;;;;;;;16.82;79.09;92496.00;4957871;29;20055;-80
2023/07/06 02:12:47;;;;;;;14.27;5.85;;;;;;;16.90;77.86;92504.16;4956425;28;20098;-81
2023/07/06 02:15:21;;;;;;;12.98;6.43;;;;;;;16.94;76.38;92505.06;4958234;28;20051;-81
2023/07/06 02:17:50;;;;;;;12.82;5.80;;;;;;;17.06;73.31;92507.75;4956919;29;20129;-81
2023/07/06 02:20:18;;;;;;;13.23;5.95;;;;;;;17.08;74.40;92510.06;4958456;28;20026;-81
2023/07/06 02:22:44;;;;;;;12.57;5.70;;;;;;;17.05;78.11;92511.50;4959827;28;20055;-81
2023/07/06 02:25:10;;;;;;;12.35;6.05;;;;;;;17.00;79.61;92504.56;4940740;28;20046;-81
2023/07/06 02:27:36;;;;;;;11.15;5.35;;;;;;;16.94;81.02;92511.13;4957760;28;20486;-81
2023/07/06 02:30:02;;;;;;;12.90;5.40;;;;;;;16.87;82.10;92510.13;4956004;28;20500;-80
2023/07/06 02:32:28;;;;;;;12.38;5.95;;;;;;;16.80;82.79;92510.63;4956875;28;20027;-81
2023/07/06 02:34:54;;;;;;;14.02;5.57;;;;;;;16.74;84.94;92507.38;4947644;28;20470;-81
2023/07/06 02:37:23;;;;;;;14.80;5.57;;;;;;;16.65;85.19;92509.31;4937709;29;20048;-79
2023/07/06 02:39:50;;;;;;;10.65;5.05;;;;;;;16.60;82.96;92512.16;4941974;29;20035;-81
2023/07/06 02:42:16;;;;;;;13.35;5.45;;;;;;;16.58;86.39;92516.97;4939490;29;20394;-81
2023/07/06 02:44:43;;;;;;;11.02;5.25;;;;;;;16.54;87.31;92508.16;4935844;29;20063;-80
2023/07/06 02:47:09;;;;;;;13.48;5.20;;;;;;;16.49;88.98;92516.28;4939389;29;20051;-80
2023/07/06 02:49:35;;;;;;;11.07;5.20;;;;;;;16.43;89.79;92497.94;4956750;28;20126;-81
2023/07/06 02:52:01;;;;;;;12.93;5.90;;;;;;;16.39;90.54;92510.28;4956228;28;20113;-80
2023/07/06 02:54:27;;;;;;;11.45;5.40;;;;;;;16.34;90.77;92514.97;4954321;28;20074;-80
2023/07/06 02:56:53;;;;;;;11.73;5.45;;;;;;;16.41;86.58;92513.38;4947990;28;20032;-80
2023/07/06 02:59:19;;;;;;;11.75;5.45;;;;;;;16.39;87.13;92512.91;4954215;29;20110;-80
2023/07/06 03:01:47;;;;;;;11.75;5.55;;;;;;;16.33;89.40;92506.28;4954612;28;20043;-80
2023/07/06 03:04:13;;;;;;;12.43;5.35;;;;;;;16.30;88.67;92500.84;4950164;29;20066;-79
2023/07/06 03:06:39;;;;;;;12.13;5.55;;;;;;;16.26;91.21;92506.00;4946832;28;20040;-79
2023/07/06 03:09:07;;;;;;;11.48;5.90;;;;;;;16.21;92.41;92506.19;4937311;29;20036;-80
2023/07/06 03:11:33;;;;;;;11.80;5.25;;;;;;;16.16;93.51;92498.44;4936399;29;20122;-81
2023/07/06 03:14:00;;;;;;;12.07;5.13;;;;;;;16.12;94.29;92500.16;4945567;29;20042;-80
2023/07/06 03:16:27;;;;;;;11.57;5.45;;;;;;;16.09;92.29;92514.03;4948711;28;20130;-80
2023/07/06 03:18:52;;;;;;;14.10;5.43;;;;;;;16.09;92.04;92503.47;4936333;29;20054;-80
2023/07/06 03:21:20;;;;;;;11.38;5.72;;;;;;;16.09;90.94;92509.50;4939520;29;20047;-80
2023/07/06 03:23:47;;;;;;;10.32;5.25;;;;;;;16.10;89.94;92505.00;4940609;29;20043;-81
2023/07/06 03:26:13;;;;;;;13.15;5.65;;;;;;;16.11;89.96;92498.63;4957420;28;20063;-80
2023/07/06 03:28:40;;;;;;;12.98;5.45;;;;;;;16.13;90.05;92504.38;4948103;29;20035;-80
2023/07/06 03:31:06;;;;;;;11.98;5.93;;;;;;;16.17;88.37;92507.94;4960894;28;20062;-82
2023/07/06 03:33:32;;;;;;;9.57;4.97;;;;;;;16.21;87.74;92508.81;4959213;28;20039;-80
2023/07/06 03:35:58;;;;;;;13.15;5.38;;;;;;;16.24;87.82;92510.84;4958135;28;20417;-81
2023/07/06 03:38:27;;;;;;;12.52;5.55;;;;;;;16.26;87.81;92508.66;4944344;28;20043;-80
2023/07/06 03:40:54;;;;;;;10.38;4.78;;;;;;;16.29;85.22;92515.94;4939532;29;20036;-81
2023/07/06 03:43:19;;;;;;;9.45;4.80;;;;;;;16.35;86.06;92506.72;4941511;29;20038;-80
2023/07/06 03:45:48;;;;;;;9.85;4.68;;;;;;;16.36;86.81;92502.22;4947353;28;20035;-80
2023/07/06 03:48:16;;;;;;;11.27;5.55;;;;;;;16.32;87.28;92486.22;4973627;28;20079;-81
2023/07/06 03:50:43;;;;;;;10.13;5.57;;;;;;;16.34;86.87;92491.97;4959177;28;20599;-80
2023/07/06 03:53:10;;;;;;;11.13;5.78;;;;;;;16.36;83.33;92500.34;4959032;28;20054;-81
2023/07/06 03:55:35;;;;;;;14.77;5.28;;;;;;;16.42;81.37;92501.69;4959915;28;20465;-81
2023/07/06 03:58:01;;;;;;;12.65;5.40;;;;;;;16.54;78.95;92510.78;4956489;29;20043;-81
2023/07/06 04:00:28;;;;;;;8.77;4.20;;;;;;;16.80;84.30;92506.13;4960588;28;20413;-81
2023/07/06 04:03:00;;;;;;;8.93;4.13;;;;;;;16.66;86.19;92516.13;4972914;28;20039;-81
2023/07/06 04:05:32;;;;;;;10.40;5.03;;;;;;;16.57;90.13;92508.28;4959969;28;20098;-80
2023/07/06 04:08:04;;;;;;;8.75;4.32;;;;;;;16.56;89.52;92512.00;4971112;28;20412;-80
2023/07/06 04:10:30;;;;;;;10.05;4.35;;;;;;;16.49;89.59;92503.06;4958663;29;20035;-81
2023/07/06 04:12:57;;;;;;;9.27;4.75;;;;;;;16.60;86.00;92520.09;4960250;28;20035;-81
2023/07/06 04:15:23;;;;;;;8.75;4.30;;;;;;;16.64;88.31;92519.13;4960259;28;20050;-81
2023/07/06 04:17:52;;;;;;;8.85;4.43;;;;;;;16.60;90.28;92518.22;4959772;29;20043;-80
2023/07/06 04:20:26;;;;;;;11.45;4.28;;;;;;;16.59;91.86;92518.53;4954358;28;20050;-81
2023/07/06 04:22:54;;;;;;;7.90;4.20;;;;;;;16.57;92.45;92521.50;4958102;28;20038;-80
2023/07/06 04:25:22;;;;;;;9.60;4.55;;;;;;;16.56;94.93;92521.81;4959420;28;20493;-80
2023/07/06 04:27:48;;;;;;;11.18;4.55;;;;;;;16.57;94.78;92531.28;4958859;28;20038;-80
2023/07/06 04:30:20;;;;;;;10.82;4.60;;;;;;;16.55;95.13;92531.63;4944691;28;20095;-80
2023/07/06 04:32:48;;;;;;;10.57;4.43;;;;;;;16.58;93.33;92525.69;4950792;28;20047;-80
2023/07/06 04:35:16;;;;;;;11.98;4.63;;;;;;;16.56;92.62;92530.50;4957209;28;20042;-80
2023/07/06 04:37:46;;;;;;;9.10;4.70;;;;;;;16.57;93.30;92526.78;4959522;28;20036;-80
2023/07/06 04:40:17;;;;;;;8.32;4.15;;;;;;;16.60;94.33;92528.00;4958230;28;20468;-80
2023/07/06 04:42:45;;;;;;;11.20;4.88;;;;;;;16.64;93.06;92536.84;4951130;28;20123;-80
2023/07/06 04:45:12;;;;;;;8.55;4.60;;;;;;;16.67;94.38;92530.91;4955152;28;20094;-80
2023/07/06 04:47:39;;;;;;;13.00;4.88;;;;;;;16.75;94.08;92535.38;4957128;28;20040;-81
2023/07/06 04:50:09;;;;;;;11.27;4.45;;;;;;;16.78;87.46;92539.22;4971936;28;20047;-79
2023/07/06 04:52:37;;;;;;;11.25;5.20;;;;;;;16.84;87.39;92537.94;4958360;28;20082;-80
2023/07/06 04:55:07;;;;;;;11.15;4.70;;;;;;;16.85;88.32;92532.34;4944342;28;20043;-80
2023/07/06 04:57:33;;;;;;;10.38;4.80;;;;;;;16.92;88.08;92539.75;4958004;28;20055;-80
2023/07/06 05:00:01;;;;;;;8.75;4.80;;;;;;;17.05;82.64;92548.53;4972434;28;20039;-80
2023/07/06 05:02:30;;;;;;;9.32;4.50;;;;;;;17.10;85.77;92556.25;4957270;28;20090;-80
2023/07/06 05:04:58;;;;;;;9.02;4.82;;;;;;;17.15;89.19;92547.34;4954895;28;20032;-80
2023/07/06 05:07:24;;;;;;;8.38;4.00;;;;;;;17.23;89.00;92552.56;4955167;28;20039;-80
2023/07/06 05:09:50;;;;;;;8.82;4.45;;;;;;;17.28;91.37;92559.53;4958535;29;20042;-80
2023/07/06 05:12:15;;;;;;;10.63;4.55;;;;;;;17.30;92.14;92562.63;4957828;29;20039;-81
2023/07/06 05:14:41;;;;;;;9.80;4.88;;;;;;;17.30;93.98;92559.22;4958509;28;20047;-80
2023/07/06 05:17:06;;;;;;;10.30;4.90;;;;;;;17.32;98.80;92567.59;4940093;29;20098;-81
2023/07/06 05:19:32;;;;;;;12.48;4.72;;;;;;;17.34;99.42;92575.94;4957991;28;20042;-80
2023/07/06 05:21:58;;;;;;;9.57;4.80;;;;;;;17.35;97.25;92561.63;4959010;28;20098;-79
2023/07/06 05:24:25;;;;;;;10.20;4.70;;;;;;;17.46;95.84;92573.38;4958251;28;20035;-81
2023/07/06 05:26:50;;;;;;;10.88;4.75;;;;;;;17.56;95.34;92575.63;4955104;28;20034;-82
2023/07/06 05:29:16;;;;;;;10.35;4.93;;;;;;;17.64;96.52;92579.25;4957678;28;20043;-81
2023/07/06 05:31:44;;;;;;;11.80;5.07;;;;;;;17.74;95.81;92573.53;4958234;28;20037;-81
2023/07/06 05:34:10;;;;;;;8.85;4.88;;;;;;;17.87;96.17;92572.47;4958261;28;20557;-82
2023/07/06 05:36:36;;;;;;;12.70;5.10;;;;;;;17.97;96.46;92568.66;4957773;28;20079;-81
2023/07/06 05:39:03;;;;;;;10.25;5.10;;;;;;;18.13;96.13;92571.44;4958492;29;20382;-82
2023/07/06 05:41:29;;;;;;;9.68;4.88;;;;;;;18.25;95.85;92571.41;4957860;28;20509;-81
2023/07/06 05:43:54;;;;;;;9.63;4.72;;;;;;;18.41;96.93;92574.16;4944796;29;20080;-81
2023/07/06 05:46:20;;;;;;;12.90;4.57;;;;;;;18.55;94.68;92578.34;4958170;28;20493;-82
2023/07/06 05:48:45;;;;;;;8.38;4.00;;;;;;;18.70;100.00;92572.38;4973116;28;20055;-81
2023/07/06 05:51:11;;;;;;;10.15;3.75;;;;;;;18.84;100.00;92575.47;4956969;29;20098;-80
2023/07/06 05:53:37;;;;;;;6.45;3.58;;;;;;;19.22;100.00;92576.16;4957464;28;20039;-81
2023/07/06 05:56:02;;;;;;;6.82;3.78;;;;;;;19.74;100.00;92567.31;4959544;28;20039;-81
2023/07/06 05:58:28;;;;;;;9.85;4.13;;;;;;;20.36;100.00;92565.03;4959068;28;20344;-82
2023/07/06 06:00:56;;;;;;;8.05;4.18;;;;;;;21.05;100.00;92556.63;4957358;28;20023;-82
2023/07/06 06:03:22;;;;;;;7.38;3.75;;;;;;;21.75;92.96;92564.50;4955865;28;20063;-82
2023/07/06 06:05:52;;;;;;;8.30;4.05;;;;;;;22.13;79.68;92565.50;4957796;28;20118;-81
2023/07/06 06:08:18;;;;;;;9.07;4.20;;;;;;;22.66;80.91;92568.25;4957827;28;20067;-82
2023/07/06 06:10:44;;;;;;;8.75;4.18;;;;;;;22.92;77.83;92564.03;4958480;29;20036;-82
2023/07/06 06:13:11;;;;;;;13.85;4.38;;;;;;;22.53;86.48;92564.25;4952404;28;20051;-82
2023/07/06 06:15:37;;;;;;;11.23;4.00;;;;;;;22.41;89.63;92567.13;4946600;29;20043;-82
2023/07/06 06:18:03;;;;;;;11.07;4.43;;;;;;;23.19;84.00;92572.03;4959821;28;20118;-83
2023/07/06 06:20:30;;;;;;;15.30;4.18;;;;;;;23.32;79.32;92567.97;4958032;28;20185;-82
2023/07/06 06:22:58;;;;;;;13.02;4.07;;;;;;;23.01;79.76;92563.78;4957902;29;20078;-82
2023/07/06 06:25:24;;;;;;;8.15;4.00;;;;;;;23.33;81.55;92564.19;4939950;29;20098;-82
2023/07/06 06:27:49;;;;;;;9.82;3.60;;;;;;;23.27;82.98;92571.75;4939559;29;20063;-82
2023/07/06 06:30:15;;;;;;;12.95;4.03;;;;;;;22.92;83.79;92572.06;4944855;29;20050;-82
2023/07/06 06:32:42;;;;;;;8.73;4.20;;;;;;;22.90;85.59;92574.31;4947351;29;20083;-82
2023/07/06 06:35:28;;;;;;;11.73;4.38;;;;;;;22.33;90.93;92576.13;4965518;28;20027;-82
2023/07/06 06:37:55;;;;;;;11.45;3.60;;;;;;;21.40;97.39;92578.66;4940911;29;20048;-82
2023/07/06 06:40:22;;;;;;;8.68;3.50;;;;;;;20.76;100.00;92578.09;4938729;29;20129;-82
2023/07/06 06:42:48;;;;;;;7.88;3.17;;;;;;;20.31;100.00;92584.66;4939179;29;20041;-81
2023/07/06 06:45:15;;;;;;;5.93;3.30;;;;;;;20.22;100.00;92591.25;4938319;29;20058;-82
2023/07/06 06:47:41;;;;;;;5.88;3.45;;;;;;;20.08;100.00;92586.34;4945551;29;20066;-82
2023/07/06 06:50:13;;;;;;;11.73;3.47;;;;;;;19.93;100.00;92587.91;4955606;29;20437;-82
2023/07/06 06:52:49;;;;;;;7.30;3.50;;;;;;;19.98;100.00;92594.84;4954668;29;20035;-81
2023/07/06 06:55:18;;;;;;;11.48;3.60;;;;;;;19.95;100.00;92589.09;4952143;28;20130;-81
2023/07/06 06:57:44;;;;;;;7.20;2.75;;;;;;;20.01;100.00;92586.97;4950919;28;20035;-82
2023/07/06 07:00:10;;;;;;;5.97;3.15;;;;;;;19.80;100.00;92594.41;4943842;29;20069;-82
2023/07/06 07:02:40;;;;;;;6.80;3.50;;;;;;;19.80;100.00;92592.50;4954074;28;20051;-82
2023/07/06 07:05:07;;;;;;;6.35;3.17;;;;;;;19.66;100.00;92608.81;4952109;28;20023;-79
2023/07/06 07:07:37;;;;;;;6.70;3.58;;;;;;;19.80;100.00;92589.09;4953258;29;20031;-80
2023/07/06 07:10:09;;;;;;;7.43;3.15;;;;;;;20.04;100.00;92591.59;4953684;28;20051;-79
2023/07/06 07:12:39;;;;;;;9.95;3.92;;;;;;;19.91;100.00;92592.78;4954349;28;20075;-80
2023/07/06 07:15:08;;;;;;;7.05;3.90;;;;;;;19.89;100.00;92597.66;4955011;28;20185;-79
2023/07/06 07:17:34;;;;;;;11.55;4.30;;;;;;;20.02;100.00;92596.50;4952954;28;20505;-78
2023/07/06 07:20:00;;;;;;;7.95;3.35;;;;;;;20.33;100.00;92597.59;4953508;28;20031;-80
2023/07/06 07:22:27;;;;;;;8.00;3.90;;;;;;;20.26;100.00;92597.41;4954145;28;20043;-80
2023/07/06 07:24:53;;;;;;;6.50;3.45;;;;;;;20.55;99.98;92607.59;4955011;28;20068;-80
2023/07/06 07:27:19;;;;;;;7.88;3.47;;;;;;;20.35;100.00;92600.69;4954829;28;20039;-80
2023/07/06 07:29:47;;;;;;;9.68;3.25;;;;;;;20.65;100.00;92608.22;4955170;28;20043;-79
2023/07/06 07:32:13;;;;;;;7.43;3.53;;;;;;;20.74;98.55;92608.84;4961762;28;20078;-79
2023/07/06 07:34:40;;;;;;;6.70;3.67;;;;;;;20.72;100.00;92609.16;4958385;28;20713;-79
2023/07/06 07:37:10;;;;;;;6.88;3.72;;;;;;;20.49;100.00;92611.66;4959881;29;20039;-79
2023/07/06 07:39:37;;;;;;;10.70;4.00;;;;;;;20.50;100.00;92610.53;4956002;29;20051;-81
2023/07/06 07:42:03;;;;;;;13.82;4.57;;;;;;;20.39;100.00;92612.94;4957973;28;20035;-82
2023/07/06 07:44:29;;;;;;;9.50;3.97;;;;;;;20.66;100.00;92621.19;4968010;29;20476;-80
2023/07/06 07:46:55;;;;;;;10.27;5.55;;;;;;;20.51;100.00;92620.06;4971424;28;20052;-80
2023/07/06 07:49:21;;;;;;;9.02;4.70;;;;;;;20.11;100.00;92630.88;4968147;28;20079;-79
2023/07/06 07:51:46;;;;;;;12.02;5.88;;;;;;;19.89;100.00;92637.50;4961615;28;20035;-78
2023/07/06 07:54:12;;;;;;;10.07;5.78;;;;;;;19.78;100.00;92641.78;4961242;29;20106;-79
2023/07/06 07:56:42;;;;;;;11.88;7.05;;;;;;;19.66;100.00;92634.63;4949464;28;20072;-78
2023/07/06 07:59:08;;;;;;;14.15;6.85;;;;;;;19.67;100.00;92636.91;4941543;29;20139;-79
2023/07/06 08:01:34;;;;;;;11.77;6.95;;;;;;;19.80;100.00;92635.00;4939105;29;20048;-78
2023/07/06 08:04:00;;;;;;;16.33;8.15;;;;;;;20.07;100.00;92632.66;4941133;29;20083;-78
2023/07/06 08:06:25;;;;;;;15.20;7.47;;;;;;;20.16;100.00;92641.25;4959284;28;20043;-77
2023/07/06 08:08:51;;;;;;;14.38;7.50;;;;;;;20.24;100.00;92648.28;4966607;28;20043;-80
2023/07/06 08:11:22;;;;;;;8.02;5.05;;;;;;;20.51;100.00;92643.22;4963108;29;20559;-78
2023/07/06 08:13:50;;;;;;;15.60;7.03;;;;;;;20.41;100.00;92652.47;4963344;28;20031;-80
2023/07/06 08:16:17;;;;;;;9.88;6.78;;;;;;;20.05;100.00;92642.84;4958057;28;20023;-80
2023/07/06 08:18:43;;;;;;;8.80;6.40;;;;;;;19.90;100.00;92661.06;4959788;28;20568;-81
2023/07/06 08:21:10;;;;;;;8.70;5.90;;;;;;;19.84;100.00;92656.38;4957664;28;20032;-79
2023/07/06 08:23:38;;;;;;;8.60;5.43;;;;;;;19.84;100.00;92661.69;4940089;29;20106;-82
2023/07/06 08:26:04;;;;;;;11.48;5.85;;;;;;;19.96;100.00;92658.94;4940301;29;20093;-81
2023/07/06 08:28:31;;;;;;;8.75;5.32;;;;;;;20.10;100.00;92638.03;4941478;29;20032;-82
2023/07/06 08:31:03;;;;;;;11.60;5.43;;;;;;;20.47;100.00;92647.69;4940950;29;20044;-81
2023/07/06 08:33:35;;;;;;;11.07;6.50;;;;;;;20.69;100.00;92643.66;4940697;29;20068;-82
2023/07/06 08:36:04;;;;;;;8.95;5.13;;;;;;;20.82;100.00;92647.00;4938489;29;20071;-82
2023/07/06 08:38:31;;;;;;;9.13;5.63;;;;;;;20.90;100.00;92646.03;4951249;28;20389;-81
2023/07/06 08:41:03;;;;;;;7.15;4.15;;;;;;;20.70;100.00;92650.53;4943924;29;20114;-81
2023/07/06 08:43:31;;;;;;;8.85;5.32;;;;;;;20.66;100.00;92644.34;4943612;29;20421;-81
2023/07/06 08:46:03;;;;;;;8.02;4.80;;;;;;;20.89;100.00;92645.25;4974091;28;20386;-82
2023/07/06 08:48:34;;;;;;;8.65;4.78;;;;;;;20.92;100.00;92633.94;4958302;28;20055;-81
2023/07/06 08:51:15;;;;;;;12.25;4.75;;;;;;;21.02;100.00;92640.59;4958997;28;20508;-80
2023/07/06 08:53:49;;;;;;;8.13;4.57;;;;;;;20.95;100.00;92638.56;4958723;28;20486;-80
2023/07/06 08:56:18;;;;;;;11.23;4.68;;;;;;;20.97;100.00;92641.66;4959524;28;20095;-80
2023/07/06 08:58:44;;;;;;;8.90;4.53;;;;;;;21.00;100.00;92653.47;4955833;29;20043;-81
2023/07/06 09:01:14;;;;;;;9.73;4.70;;;;;;;21.28;100.00;92653.34;4940059;28;20070;-82
2023/07/06 09:03:56;;;;;;;9.85;4.95;;;;;;;21.44;100.00;92652.53;4956558;29;20046;-80
2023/07/06 09:06:26;;;;;;;8.70;4.78;;;;;;;21.49;100.00;92652.25;4958502;28;20039;-80
2023/07/06 09:09:01;;;;;;;8.02;4.53;;;;;;;21.32;100.00;92651.53;4956402;28;20043;-82
2023/07/06 09:11:28;;;;;;;7.15;4.03;;;;;;;21.31;100.00;92652.63;4940083;28;20398;-80
2023/07/06 09:13:55;;;;;;;12.98;4.43;;;;;;;21.41;100.00;92648.66;4952184;29;20116;-79
2023/07/06 09:16:22;;;;;;;9.05;4.90;;;;;;;21.41;100.00;92659.31;4958599;28;20057;-80
2023/07/06 09:18:49;;;;;;;9.00;5.22;;;;;;;21.23;100.00;92666.91;4958375;28;20138;-79
2023/07/06 09:21:17;;;;;;;9.45;5.00;;;;;;;21.18;100.00;92651.22;4957311;29;20432;-79
2023/07/06 09:23:47;;;;;;;8.43;5.15;;;;;;;21.21;100.00;92651.28;4951160;28;20035;-80
2023/07/06 09:26:23;;;;;;;10.25;4.68;;;;;;;21.42;100.00;92650.97;4943208;28;20041;-80
2023/07/06 09:28:51;;;;;;;6.95;4.50;;;;;;;21.50;100.00;92656.44;4940079;29;20031;-79
2023/07/06 09:31:19;;;;;;;7.97;4.80;;;;;;;21.69;100.00;92653.81;4937916;29;20036;-79
2023/07/06 09:33:49;;;;;;;7.95;4.47;;;;;;;21.61;100.00;92649.44;4940487;29;20078;-80
2023/07/06 09:36:23;;;;;;;8.30;4.85;;;;;;;21.27;100.00;92665.09;4938879;29;20044;-80
2023/07/06 09:38:50;;;;;;;8.57;4.80;;;;;;;21.32;100.00;92651.53;4939584;29;20043;-80
2023/07/06 09:41:25;;;;;;;10.00;5.15;;;;;;;21.32;100.00;92654.19;4942136;29;20039;-78
2023/07/06 09:44:03;;;;;;;10.27;5.38;;;;;;;21.51;100.00;92650.03;4947484;29;20421;-80
2023/07/06 09:46:39;;;;;;;9.30;5.22;;;;;;;21.40;100.00;92647.91;4957439;28;20031;-80
2023/07/06 09:49:15;;;;;;;9.73;4.70;;;;;;;21.75;100.00;92660.41;4954666;28;20051;-80
2023/07/06 09:51:54;;;;;;;8.02;4.50;;;;;;;21.71;100.00;92662.22;4939914;29;20540;-80
2023/07/06 09:54:26;;;;;;;9.43;5.03;;;;;;;21.68;100.00;92665.56;4950092;29;20226;-81
2023/07/06 09:56:53;;;;;;;8.45;4.40;;;;;;;21.49;100.00;92670.91;4939715;28;20451;-81
2023/07/06 09:59:18;;;;;;;10.38;4.55;;;;;;;21.68;100.00;92678.13;4938601;29;20482;-82
2023/07/06 10:02:06;;;;;;;9.15;4.53;;;;;;;21.87;100.00;92669.38;4942818;29;20039;-79
2023/07/06 10:04:55;;;;;;;8.13;4.53;;;;;;;21.48;100.00;92664.81;4939272;29;20044;-82
2023/07/06 10:07:52;;;;;;;7.13;4.43;;;;;;;21.48;100.00;92669.34;4955171;28;20089;-79
2023/07/06 10:10:30;;;;;;;9.50;4.97;;;;;;;21.47;100.00;92678.47;4958170;28;20106;-81
2023/07/06 10:13:13;;;;;;;6.85;3.92;;;;;;;21.51;100.00;92668.66;4958244;28;20058;-81
2023/07/06 10:15:51;;;;;;;13.18;5.25;;;;;;;21.34;100.00;92673.22;4957536;28;20039;-80
2023/07/06 10:18:43;;;;;;;11.07;4.45;;;;;;;21.30;100.00;92676.94;4938353;29;20519;-80
2023/07/06 10:21:17;;;;;;;10.88;5.25;;;;;;;21.27;100.00;92674.97;4938588;29;20032;-82
2023/07/06 10:23:43;;;;;;;8.75;4.57;;;;;;;21.27;100.00;92675.75;4955562;29;20031;-81
2023/07/06 10:26:48;;;;;;;18.58;4.80;;;;;;;21.26;100.00;92679.53;4957224;28;20544;-81
2023/07/06 10:29:24;;;;;;;37.00;6.07;;;;;;;21.25;100.00;92675.31;4918943;29;20059;-78
2023/07/06 10:31:56;;;;;;;9.48;3.60;;;;;;;21.15;100.00;92662.56;4938342;29;20053;-80
2023/07/06 10:34:47;;;;;;;6.05;3.72;;;;;;;21.19;100.00;92668.72;4953456;28;20133;-81
2023/07/06 10:37:17;;;;;;;7.20;3.63;;;;;;;20.87;100.00;92681.31;4939780;29;20490;-81
2023/07/06 10:39:45;;;;;;;7.13;3.67;;;;;;;20.86;100.00;92666.47;4951135;29;20496;-80
2023/07/06 10:42:27;;;;;;;11.32;3.17;;;;;;;21.19;100.00;92682.03;4956969;28;20489;-81
2023/07/06 10:44:58;;;;;;;15.75;4.82;;;;;;;20.97;100.00;92678.13;4956221;28;20043;-80
2023/07/06 10:47:44;;;;;;;19.15;3.97;;;;;;;20.71;100.00;92682.09;4956520;28;20556;-81
2023/07/06 10:50:29;;;;;;;6.88;3.30;;;;;;;20.38;100.00;92674.44;4937761;29;20453;-81
2023/07/06 10:53:01;;;;;;;13.65;3.75;;;;;;;20.15;100.00;92683.00;4936460;29;20040;-80
2023/07/06 10:55:34;;;;;;;5.47;3.30;;;;;;;19.95;100.00;92689.28;4940879;28;20057;-81
2023/07/06 10:58:33;;;;;;;7.30;3.53;;;;;;;19.86;100.00;92684.13;4953696;29;20456;-83
2023/07/06 11:01:07;;;;;;;8.90;4.28;;;;;;;19.86;100.00;92680.69;4951514;29;20465;-78
2023/07/06 11:03:32;;;;;;;7.47;4.55;;;;;;;19.92;100.00;92680.09;4956185;28;20085;-77
2023/07/06 11:06:07;;;;;;;8.48;4.30;;;;;;;19.88;100.00;92681.13;4955833;28;20057;-79
2023/07/06 11:09:11;;;;;;;6.40;3.45;;;;;;;20.06;100.00;92690.34;4954885;28;20121;-82
2023/07/06 11:11:38;;;;;;;8.43;3.83;;;;;;;19.96;100.00;92682.84;4935933;29;20044;-81
2023/07/06 11:14:30;;;;;;;7.05;3.75;;;;;;;19.53;100.00;92679.00;4951189;29;20027;-80
2023/07/06 11:17:00;;;;;;;21.33;4.68;;;;;;;19.25;100.00;92674.44;4955753;28;20090;-80
2023/07/06 11:19:29;;;;;;;7.85;3.63;;;;;;;19.00;100.00;92664.97;4954457;28;20103;-81
2023/07/06 11:22:02;;;;;;;6.97;3.75;;;;;;;18.79;100.00;92673.81;4954724;29;20033;-81
2023/07/06 11:24:34;;;;;;;6.97;3.30;;;;;;;18.71;100.00;92685.28;4954714;28;20090;-79
2023/07/06 11:27:03;;;;;;;;;;;;;;;18.58;100.00;92695.13;4951767;28;20090;-80
2023/07/06 11:29:30;;;;;;;5.88;3.20;;;;;;;18.58;100.00;92695.13;4954225;29;19915;-79
2023/07/06 11:32:16;;;;;;;6.82;3.60;;;;;;;18.58;100.00;92699.66;4953569;28;20039;-81
2023/07/06 11:34:59;;;;;;;8.38;3.65;;;;;;;18.69;100.00;92693.59;4950896;28;20038;-80
2023/07/06 11:37:34;;;;;;;7.65;3.38;;;;;;;18.78;100.00;92695.34;4952008;29;20553;-81
2023/07/06 11:40:10;;;;;;;6.32;3.38;;;;;;;18.82;100.00;92699.66;4954376;28;20104;-80
2023/07/06 11:42:36;;;;;;;7.93;3.63;;;;;;;18.88;100.00;92701.00;4958298;28;20047;-80